»·PEaware :: DCM205 KSFO-KSBA

DCM205 :: KSFO-KSBA

FLIGHT INFORMATION

Flight Status: Arrived
Operator:
DotCom
More flights by this operator :: More flights under this callsign
Pilot: Chris S. (2433)
Aircraft: BOEING 737-600
(B736)
More flights by this aircraft type
Origin: KSFO San Francisco Intl
United States
Destination: KSBA Santa Barbara Mun
United States
More flights between these airports :: More routes between these airports
Route: OFFSH2 GVO HABUT
File this flight plan on PilotEdge
Remarks:
Altitude:
(Current/Filed)
36,000ft
Speed:
(Current/Filed)
450kts
Departed: 06-Oct-22 06:41 PM
Arrived: 06-Oct-22 07:28 PM
Distance/Time
Traveled:
228nm/0:47
Distance/Time
To Go:
Arrived

Flight Plot

Page will automatically refresh every two minutes.

Flight plan parsing failed; only flown route is shown


Map Options




Map Legend


Flown Route
Filed Route
Departure Airport
Arrival Airport
Navaid (VOR, NDB)
Fix

Horizontal Profiles

Position Reports

Time Latitude Longitude Heading Altitude Ground
Speed
06-Oct-22 18:16 37.626247 -122.379942 297 14ft 0kts
06-Oct-22 18:17 37.626247 -122.379942 297 14ft 0kts
06-Oct-22 18:18 37.626247 -122.379942 297 14ft 0kts
06-Oct-22 18:19 37.626247 -122.379942 297 14ft 0kts
06-Oct-22 18:20 37.626247 -122.379942 297 14ft 0kts
06-Oct-22 18:21 37.626247 -122.379942 297 14ft 0kts
06-Oct-22 18:22 37.626247 -122.379942 297 14ft 0kts
06-Oct-22 18:23 37.626247 -122.379942 297 14ft 0kts
06-Oct-22 18:24 37.626247 -122.379942 297 14ft 0kts
06-Oct-22 18:26 37.626247 -122.379942 297 5ft 0kts
06-Oct-22 18:27 37.626247 -122.379942 297 5ft 0kts
06-Oct-22 18:28 37.626247 -122.379942 297 5ft 0kts
06-Oct-22 18:29 37.626247 -122.379942 297 5ft 0kts
06-Oct-22 18:30 37.626247 -122.379942 297 5ft 0kts
06-Oct-22 18:31 37.626247 -122.379942 297 5ft 0kts
06-Oct-22 18:32 37.626256 -122.380971 209 15ft 0kts
06-Oct-22 18:33 37.626256 -122.380971 209 15ft 0kts
06-Oct-22 18:34 37.624209 -122.381675 207 17ft 15kts
06-Oct-22 18:35 37.620664 -122.382672 119 20ft 10kts
06-Oct-22 18:36 37.618093 -122.378746 166 16ft 15kts
06-Oct-22 18:37 37.614500 -122.380120 207 13ft 12kts
06-Oct-22 18:38 37.611356 -122.382221 208 17ft 12kts
06-Oct-22 18:39 37.609124 -122.383429 144 19ft 0kts
06-Oct-22 18:40 37.608944 -122.382243 28 22ft 9kts
06-Oct-22 18:41 37.640731 -122.362388 10 1798ft 172kts
06-Oct-22 18:42 37.700152 -122.365038 340 4072ft 257kts
06-Oct-22 18:43 37.706401 -122.441867 214 7555ft 275kts
06-Oct-22 18:44 37.658291 -122.520724 217 10818ft 311kts
06-Oct-22 18:45 37.580020 -122.596275 216 12814ft 368kts
06-Oct-22 18:46 37.500236 -122.671154 216 16561ft 361kts
06-Oct-22 18:47 37.406665 -122.701075 162 19337ft 375kts
06-Oct-22 18:48 37.304984 -122.662793 166 21996ft 389kts
06-Oct-22 18:48 37.216449 -122.638675 168 23590ft 394kts
06-Oct-22 18:50 37.089654 -122.605469 168 24886ft 404kts
06-Oct-22 18:51 36.978355 -122.576274 168 25823ft 414kts
06-Oct-22 18:52 36.865533 -122.547147 169 27151ft 410kts
06-Oct-22 18:53 36.753845 -122.518151 169 28506ft 408kts
06-Oct-22 18:53 36.661237 -122.494124 169 29390ft 414kts
06-Oct-22 18:54 36.545578 -122.464119 169 30615ft 429kts
06-Oct-22 18:55 36.427596 -122.431203 158 32382ft 437kts
06-Oct-22 18:57 36.331101 -122.303755 128 34286ft 442kts
06-Oct-22 18:58 36.250800 -122.182675 130 34694ft 470kts
06-Oct-22 18:58 36.178902 -122.077717 129 35101ft 486kts
06-Oct-22 18:59 36.091391 -121.950781 129 35113ft 481kts
06-Oct-22 19:00 36.004402 -121.825363 129 35109ft 480kts
06-Oct-22 19:01 35.917188 -121.700069 130 35102ft 480kts
06-Oct-22 19:03 35.815764 -121.554939 129 35112ft 479kts
06-Oct-22 19:03 35.743318 -121.451650 129 35110ft 477kts
06-Oct-22 19:04 35.656469 -121.328232 129 35111ft 477kts
06-Oct-22 19:05 35.571394 -121.207774 130 34028ft 457kts
06-Oct-22 19:06 35.487720 -121.089677 130 30907ft 460kts
06-Oct-22 19:07 35.393908 -120.987221 139 27290ft 440kts
06-Oct-22 19:08 35.302802 -120.892865 138 23921ft 418kts
06-Oct-22 19:09 35.215585 -120.801250 137 21192ft 406kts
06-Oct-22 19:10 35.132848 -120.714557 137 20023ft 367kts
06-Oct-22 19:11 35.057266 -120.635525 137 18648ft 353kts
06-Oct-22 19:12 34.983731 -120.558827 137 17104ft 341kts
06-Oct-22 19:13 34.912699 -120.484934 137 15629ft 330kts
06-Oct-22 19:14 34.843909 -120.413535 138 14225ft 320kts
06-Oct-22 19:15 34.776878 -120.344106 138 12674ft 312kts
06-Oct-22 19:16 34.711791 -120.276850 139 11007ft 301kts
06-Oct-22 19:17 34.652766 -120.215978 139 9834ft 255kts
06-Oct-22 19:18 34.599599 -120.161258 138 7365ft 250kts
06-Oct-22 19:19 34.550391 -120.110720 138 6302ft 202kts
06-Oct-22 19:20 34.503085 -120.089801 181 5243ft 186kts
06-Oct-22 19:21 34.450578 -120.089389 180 4372ft 192kts
06-Oct-22 19:22 34.423001 -120.051297 81 3291ft 180kts
06-Oct-22 19:23 34.424676 -119.995208 83 2229ft 142kts
06-Oct-22 19:24 34.425624 -119.947897 85 1499ft 141kts
06-Oct-22 19:25 34.426584 -119.902701 89 793ft 129kts
06-Oct-22 19:26 34.427415 -119.859457 88 139ft 126kts
06-Oct-22 19:27 34.427561 -119.838624 153 22ft 13kts

Navigation Log

Ident Type
Flight plan parsing failed, navigation log unavailable